createdAt,value
2024-02-02T00:00:22.483Z,14.02
2024-02-02T00:02:48.968Z,14.21
2024-02-02T00:05:15.445Z,14.83
2024-02-02T00:07:41.834Z,15.08
2024-02-02T00:10:08.238Z,13.94
2024-02-02T00:12:34.659Z,13.59
2024-02-02T00:15:01.245Z,13.44
2024-02-02T00:17:27.657Z,13.28
2024-02-02T00:19:54.120Z,14.59
2024-02-02T00:22:20.534Z,15.01
2024-02-02T00:24:46.931Z,14.81
2024-02-02T00:27:13.383Z,15.16
2024-02-02T00:29:39.798Z,14.91
2024-02-02T00:32:06.209Z,14.49
2024-02-02T00:34:32.816Z,14.83
2024-02-02T00:36:59.316Z,15.29
2024-02-02T00:39:25.812Z,15.42
2024-02-02T00:41:52.301Z,16.55
2024-02-02T00:44:18.708Z,17.90
2024-02-02T00:46:45.088Z,17.97
2024-02-02T00:49:11.575Z,18.50
2024-02-02T00:51:38.090Z,20.05
2024-02-02T00:54:04.521Z,20.09
2024-02-02T00:56:30.954Z,21.67
2024-02-02T00:58:57.340Z,22.54
2024-02-02T01:01:24.066Z,24.00
2024-02-02T01:03:50.556Z,23.76
2024-02-02T01:06:17.090Z,24.62
2024-02-02T01:08:43.543Z,25.79
2024-02-02T01:11:10.205Z,25.01
2024-02-02T01:13:36.614Z,24.56
2024-02-02T01:16:03.011Z,24.35
2024-02-02T01:18:29.608Z,24.40
2024-02-02T01:20:56.218Z,23.84
2024-02-02T01:23:22.657Z,23.25
2024-02-02T01:25:49.048Z,22.47
2024-02-02T01:28:15.450Z,22.92
2024-02-02T01:30:41.881Z,23.48
2024-02-02T01:33:08.451Z,22.11
2024-02-02T01:35:34.930Z,24.19
2024-02-02T01:38:01.330Z,22.49
2024-02-02T01:40:27.762Z,21.48
2024-02-02T01:42:54.159Z,21.45
2024-02-02T01:45:20.642Z,22.65
2024-02-02T01:47:47.185Z,23.45
2024-02-02T01:50:13.683Z,24.77
2024-02-02T01:52:40.110Z,24.56
2024-02-02T01:55:06.508Z,25.18
2024-02-02T01:57:32.936Z,25.11
2024-02-02T01:59:59.339Z,25.54
2024-02-02T02:02:25.727Z,25.46
2024-02-02T02:04:52.132Z,25.39
2024-02-02T02:07:18.558Z,26.01
2024-02-02T02:09:45.041Z,25.92
2024-02-02T02:12:11.474Z,26.78
2024-02-02T02:14:37.904Z,27.14
2024-02-02T02:17:04.319Z,27.08
2024-02-02T02:19:30.845Z,26.04
2024-02-02T02:21:57.305Z,25.56
2024-02-02T02:24:23.747Z,25.92
2024-02-02T02:26:50.169Z,25.04
2024-02-02T02:29:16.541Z,23.99
2024-02-02T02:31:42.936Z,22.63
2024-02-02T02:34:09.523Z,21.69
2024-02-02T02:36:36.039Z,20.79
2024-02-02T02:39:02.476Z,19.78
2024-02-02T02:41:28.872Z,19.97
2024-02-02T02:43:55.282Z,20.17
2024-02-02T02:46:21.675Z,18.68
2024-02-02T02:48:48.182Z,19.63
2024-02-02T02:51:14.748Z,18.22
2024-02-02T02:53:41.169Z,18.56
2024-02-02T02:56:07.580Z,18.26
2024-02-02T02:58:33.985Z,19.85
2024-02-02T03:01:00.433Z,22.09
2024-02-02T03:03:26.906Z,21.48
2024-02-02T03:05:53.424Z,20.95
2024-02-02T03:08:19.900Z,20.02
2024-02-02T03:10:46.301Z,19.97
2024-02-02T03:13:12.682Z,20.88
2024-02-02T03:15:39.060Z,22.07
2024-02-02T03:18:05.549Z,21.49
2024-02-02T03:20:31.984Z,20.84
2024-02-02T03:22:58.378Z,20.64
2024-02-02T03:25:24.760Z,19.83
2024-02-02T03:27:51.155Z,18.64
2024-02-02T03:30:17.587Z,17.78
2024-02-02T03:32:44.142Z,17.62
2024-02-02T03:35:10.625Z,17.97
2024-02-02T03:37:37.013Z,18.59
2024-02-02T03:40:03.427Z,17.41
2024-02-02T03:42:29.889Z,15.55
2024-02-02T03:44:56.326Z,14.63
2024-02-02T03:47:22.737Z,14.31
2024-02-02T03:49:49.161Z,15.00
2024-02-02T03:52:15.645Z,14.58
2024-02-02T03:54:42.050Z,14.74
2024-02-02T03:57:08.469Z,14.01
2024-02-02T03:59:34.873Z,14.16
2024-02-02T04:02:01.275Z,14.37
2024-02-02T04:04:27.688Z,14.58
2024-02-02T04:06:54.088Z,14.47
2024-02-02T04:09:20.535Z,14.09
2024-02-02T04:11:46.957Z,13.00
2024-02-02T04:14:13.346Z,12.51
2024-02-02T04:16:39.734Z,12.39
2024-02-02T04:19:06.269Z,15.06
2024-02-02T04:21:32.740Z,18.18
2024-02-02T04:23:59.242Z,14.20
2024-02-02T04:26:25.719Z,11.61
2024-02-02T04:28:52.120Z,13.12
2024-02-02T04:31:18.515Z,13.97
2024-02-02T04:33:45.028Z,11.94
2024-02-02T04:36:11.601Z,10.70
2024-02-02T04:38:37.979Z,11.57
2024-02-02T04:41:04.355Z,12.28
2024-02-02T04:43:30.816Z,13.76
2024-02-02T04:45:57.274Z,14.29
2024-02-02T04:48:24.477Z,14.17
2024-02-02T04:50:50.945Z,13.81
2024-02-02T04:53:17.376Z,14.61
2024-02-02T04:55:43.769Z,18.42
2024-02-02T04:58:10.205Z,19.87
2024-02-02T05:00:36.774Z,19.94
2024-02-02T05:03:03.318Z,19.65
2024-02-02T05:05:29.800Z,20.55
2024-02-02T05:07:56.354Z,20.62
2024-02-02T05:10:22.849Z,21.63
2024-02-02T05:12:49.244Z,26.04
2024-02-02T05:15:15.691Z,25.33
2024-02-02T05:17:42.197Z,28.31
2024-02-02T05:20:08.648Z,25.22
2024-02-02T05:22:35.062Z,23.99
2024-02-02T05:25:01.505Z,23.53
2024-02-02T05:27:27.967Z,24.11
2024-02-02T05:29:54.410Z,22.97
2024-02-02T05:32:20.828Z,23.27
2024-02-02T05:34:47.315Z,22.87
2024-02-02T05:37:13.807Z,22.51
2024-02-02T05:39:40.276Z,24.09
2024-02-02T05:42:06.722Z,28.58
2024-02-02T05:44:33.117Z,33.02
2024-02-02T05:46:59.521Z,26.05
2024-02-02T05:49:26.149Z,22.67
2024-02-02T05:51:52.749Z,22.35
2024-02-02T05:54:19.289Z,21.66
2024-02-02T05:56:45.702Z,21.43
2024-02-02T05:59:12.105Z,21.59
2024-02-02T06:01:38.592Z,22.38
2024-02-02T06:04:05.134Z,24.30
2024-02-02T06:06:31.672Z,26.92
2024-02-02T06:09:00.460Z,27.53
2024-02-02T06:11:27.377Z,26.10
2024-02-02T06:13:53.768Z,25.85
2024-02-02T06:16:20.138Z,26.36
2024-02-02T06:18:46.589Z,25.88
2024-02-02T06:21:13.078Z,27.40
2024-02-02T06:23:39.485Z,27.60
2024-02-02T06:26:05.887Z,24.03
2024-02-02T06:28:32.280Z,22.64
2024-02-02T06:30:58.680Z,23.39
2024-02-02T06:33:25.265Z,23.43
2024-02-02T06:35:51.801Z,19.19
2024-02-02T06:38:18.240Z,20.04
2024-02-02T06:40:44.660Z,17.10
2024-02-02T06:43:11.062Z,17.04
2024-02-02T06:45:37.537Z,17.72
2024-02-02T06:48:04.135Z,14.37
2024-02-02T06:50:30.615Z,13.63
2024-02-02T06:52:57.025Z,11.62
2024-02-02T06:55:23.463Z,14.87
2024-02-02T06:57:50.472Z,15.65
2024-02-02T07:00:17.091Z,13.49
2024-02-02T07:02:43.600Z,15.50
2024-02-02T07:05:10.005Z,15.11
2024-02-02T07:07:36.389Z,26.68
2024-02-02T07:10:02.780Z,38.41
2024-02-02T07:12:29.441Z,37.12
2024-02-02T07:14:55.910Z,27.05
2024-02-02T07:17:22.319Z,28.67
2024-02-02T07:19:48.783Z,21.63
2024-02-02T07:22:15.178Z,17.57
2024-02-02T07:24:41.622Z,18.75
2024-02-02T07:27:08.133Z,18.42
2024-02-02T07:29:34.530Z,15.47
2024-02-02T07:32:00.919Z,6.22
2024-02-02T07:34:27.691Z,3.84
2024-02-02T07:36:54.225Z,3.49
2024-02-02T07:39:20.677Z,3.41
2024-02-02T07:41:47.105Z,3.53
2024-02-02T07:44:13.495Z,3.68
2024-02-02T07:46:40.024Z,3.85
2024-02-02T07:49:06.514Z,3.51
2024-02-02T07:51:32.920Z,3.24
2024-02-02T07:53:59.370Z,3.24
2024-02-02T07:56:26.108Z,3.27
2024-02-02T07:58:52.659Z,3.09
2024-02-02T08:01:19.357Z,2.76
2024-02-02T08:03:45.961Z,2.91
2024-02-02T08:06:12.612Z,2.62
2024-02-02T08:08:39.079Z,2.72
2024-02-02T08:11:05.510Z,2.91
2024-02-02T08:13:32.060Z,3.52
2024-02-02T08:15:58.508Z,3.75
2024-02-02T08:18:24.976Z,3.72
2024-02-02T08:20:51.426Z,3.15
2024-02-02T08:23:17.823Z,2.87
2024-02-02T08:25:44.210Z,2.88
2024-02-02T08:28:10.596Z,3.16
2024-02-02T08:30:37.046Z,3.65
2024-02-02T08:33:03.501Z,6.69
2024-02-02T08:35:30.199Z,6.83
2024-02-02T08:37:56.600Z,8.68
2024-02-02T08:40:23.009Z,9.65
2024-02-02T08:42:49.412Z,5.78
2024-02-02T08:45:15.880Z,4.25
2024-02-02T08:47:42.275Z,3.40
2024-02-02T08:50:08.770Z,2.98
2024-02-02T08:52:35.205Z,3.08
2024-02-02T08:55:01.578Z,3.32
2024-02-02T08:57:28.236Z,3.31
2024-02-02T08:59:54.746Z,3.47
2024-02-02T09:02:21.272Z,3.52
2024-02-02T09:04:47.673Z,3.35
2024-02-02T09:07:14.201Z,5.20
2024-02-02T09:09:40.720Z,7.84
2024-02-02T09:12:07.144Z,7.50
2024-02-02T09:14:33.546Z,6.56
2024-02-02T09:16:59.925Z,5.76
2024-02-02T09:19:26.379Z,5.65
2024-02-02T09:21:52.791Z,4.87
2024-02-02T09:24:19.212Z,4.15
2024-02-02T09:26:45.714Z,3.55
2024-02-02T09:29:12.159Z,3.78
2024-02-02T09:31:39.164Z,5.22
2024-02-02T09:34:06.086Z,4.69
2024-02-02T09:36:32.663Z,3.98
2024-02-02T09:38:59.208Z,3.56
2024-02-02T09:41:25.637Z,3.23
2024-02-02T09:43:52.017Z,3.09
2024-02-02T09:46:18.449Z,3.87
2024-02-02T09:48:45.007Z,3.82
2024-02-02T09:51:11.642Z,3.82
2024-02-02T09:53:38.095Z,3.70
2024-02-02T09:56:04.470Z,4.64
2024-02-02T09:58:30.989Z,3.77
2024-02-02T10:00:57.423Z,3.38
2024-02-02T10:03:23.904Z,3.97
2024-02-02T10:05:50.364Z,3.43
2024-02-02T10:08:16.795Z,3.43
2024-02-02T10:10:43.202Z,3.68
2024-02-02T10:13:09.575Z,4.13
2024-02-02T10:15:36.052Z,3.95
2024-02-02T10:18:02.635Z,3.87
2024-02-02T10:20:29.077Z,3.53
2024-02-02T10:22:55.486Z,3.37
2024-02-02T10:25:21.902Z,3.30
2024-02-02T10:27:48.277Z,3.59
2024-02-02T10:30:14.701Z,3.65
2024-02-02T10:32:41.159Z,3.15
2024-02-02T10:35:07.596Z,3.27
2024-02-02T10:37:33.972Z,3.70
2024-02-02T10:40:00.378Z,4.12
2024-02-02T10:42:26.792Z,4.31
2024-02-02T10:44:53.322Z,5.26
2024-02-02T10:47:19.753Z,5.36
2024-02-02T10:49:46.272Z,7.76
2024-02-02T10:52:12.686Z,10.69
2024-02-02T10:54:39.300Z,11.66
2024-02-02T10:57:05.822Z,13.19
2024-02-02T10:59:32.251Z,16.84
2024-02-02T11:01:58.805Z,20.59
2024-02-02T11:04:25.297Z,23.61
2024-02-02T11:06:51.999Z,23.61
2024-02-02T11:09:18.609Z,21.13
2024-02-02T11:11:45.022Z,20.98
2024-02-02T11:14:11.421Z,20.80
2024-02-02T11:16:37.835Z,19.95
2024-02-02T11:19:04.462Z,18.62
2024-02-02T11:21:31.050Z,18.58
2024-02-02T11:23:57.475Z,19.21
2024-02-02T11:26:23.880Z,18.05
2024-02-02T11:28:50.293Z,18.01
2024-02-02T11:31:16.690Z,17.42
2024-02-02T11:33:43.188Z,18.41
2024-02-02T11:36:09.652Z,17.98
2024-02-02T11:38:36.096Z,17.34
2024-02-02T11:41:02.499Z,15.51
2024-02-02T11:43:28.893Z,17.12
2024-02-02T11:45:55.301Z,17.06
2024-02-02T11:48:21.904Z,16.91
2024-02-02T11:50:48.431Z,15.71
2024-02-02T11:53:14.847Z,15.84
2024-02-02T11:55:41.244Z,15.54
2024-02-02T11:58:07.760Z,15.26
2024-02-02T12:00:34.192Z,14.60
2024-02-02T12:03:00.611Z,14.82
2024-02-02T12:05:27.084Z,14.61
2024-02-02T12:07:53.551Z,14.56
2024-02-02T12:10:20.073Z,13.87
2024-02-02T12:12:46.496Z,13.92
2024-02-02T12:15:12.982Z,13.39
2024-02-02T12:17:39.406Z,12.80
2024-02-02T12:20:05.934Z,12.67
2024-02-02T12:22:32.405Z,12.63
2024-02-02T12:24:58.831Z,11.73
2024-02-02T12:27:25.321Z,11.71
2024-02-02T12:29:51.728Z,12.28
2024-02-02T12:32:18.119Z,16.32
2024-02-02T12:34:44.581Z,12.65
2024-02-02T12:37:11.060Z,14.22
2024-02-02T12:39:37.504Z,15.32
2024-02-02T12:42:05.855Z,16.83
2024-02-02T12:44:33.019Z,16.17
2024-02-02T12:46:59.411Z,16.63
2024-02-02T12:49:26.700Z,17.24
2024-02-02T12:51:53.317Z,17.34
2024-02-02T12:54:19.835Z,16.83
2024-02-02T12:56:46.256Z,16.88
2024-02-02T12:59:12.658Z,17.08
2024-02-02T13:01:39.151Z,16.63
2024-02-02T13:04:05.681Z,16.99
2024-02-02T13:06:32.133Z,18.35
2024-02-02T13:08:58.569Z,18.63
2024-02-02T13:11:24.996Z,18.24
2024-02-02T13:13:51.395Z,18.89
2024-02-02T13:16:17.770Z,19.13
2024-02-02T13:18:44.233Z,20.60
2024-02-02T13:21:10.645Z,19.91
2024-02-02T13:23:37.344Z,19.74
2024-02-02T13:26:03.801Z,19.83
2024-02-02T13:28:30.215Z,20.18
2024-02-02T13:30:56.755Z,20.12
2024-02-02T13:33:23.294Z,19.72
2024-02-02T13:35:49.802Z,19.24
2024-02-02T13:38:16.267Z,19.16
2024-02-02T13:40:42.699Z,19.28
2024-02-02T13:43:09.104Z,19.19
2024-02-02T13:45:35.578Z,19.33
2024-02-02T13:48:02.237Z,18.58
2024-02-02T13:50:28.815Z,18.21
2024-02-02T13:52:55.198Z,17.93
2024-02-02T13:55:21.588Z,17.52
2024-02-02T13:57:47.999Z,17.45
2024-02-02T14:00:14.527Z,17.95
2024-02-02T14:02:41.019Z,18.67
2024-02-02T14:05:07.410Z,18.38
2024-02-02T14:07:33.865Z,18.76
2024-02-02T14:10:00.291Z,18.27
2024-02-02T14:12:26.774Z,21.31
2024-02-02T14:14:53.183Z,21.35
2024-02-02T14:17:19.564Z,17.12
2024-02-02T14:19:45.956Z,16.85
2024-02-02T14:22:12.355Z,16.68
2024-02-02T14:24:38.770Z,16.39
2024-02-02T14:27:05.225Z,16.61
2024-02-02T14:29:31.627Z,15.96
2024-02-02T14:31:58.032Z,14.40
2024-02-02T14:34:24.574Z,16.04
2024-02-02T14:36:51.047Z,14.31
2024-02-02T14:39:17.474Z,14.28
2024-02-02T14:41:43.874Z,14.35
2024-02-02T14:44:10.270Z,14.69
2024-02-02T14:46:36.663Z,15.08
2024-02-02T14:49:04.004Z,14.20
2024-02-02T14:51:31.863Z,14.89
2024-02-02T14:53:58.324Z,14.26
2024-02-02T14:56:24.743Z,13.98
2024-02-02T14:58:51.143Z,12.47
2024-02-02T15:01:17.576Z,12.20
2024-02-02T15:03:44.098Z,14.24
2024-02-02T15:06:10.646Z,14.16
2024-02-02T15:08:37.056Z,13.21
2024-02-02T15:11:03.437Z,13.05
2024-02-02T15:13:29.827Z,12.46
2024-02-02T15:15:56.228Z,14.39
2024-02-02T15:18:22.763Z,14.70
2024-02-02T15:20:49.247Z,11.68
2024-02-02T15:23:15.643Z,11.56
2024-02-02T15:25:42.032Z,10.70
2024-02-02T15:28:08.423Z,9.58
2024-02-02T15:30:34.845Z,11.37
2024-02-02T15:33:01.331Z,10.94
2024-02-02T15:35:27.877Z,11.04
2024-02-02T15:37:54.321Z,10.86
2024-02-02T15:40:20.794Z,9.79
2024-02-02T15:42:47.359Z,8.45
2024-02-02T15:45:13.799Z,8.32
2024-02-02T15:47:40.330Z,7.70
2024-02-02T15:50:06.902Z,7.07
2024-02-02T15:52:33.357Z,6.54
2024-02-02T15:54:59.738Z,6.47
2024-02-02T15:57:26.210Z,6.29
2024-02-02T15:59:52.624Z,6.18
2024-02-02T16:02:19.004Z,6.33
2024-02-02T16:04:45.404Z,6.78
2024-02-02T16:07:11.832Z,5.80
2024-02-02T16:09:38.390Z,5.80
2024-02-02T16:12:04.861Z,6.97
2024-02-02T16:14:31.270Z,8.09
2024-02-02T16:16:57.648Z,8.72
2024-02-02T16:19:24.142Z,8.12
2024-02-02T16:21:50.600Z,7.69
2024-02-02T16:24:17.050Z,7.74
2024-02-02T16:26:43.464Z,6.47
2024-02-02T16:29:09.889Z,5.87
2024-02-02T16:31:36.282Z,5.73
2024-02-02T16:34:02.847Z,5.26
2024-02-02T16:36:29.895Z,5.22
2024-02-02T16:38:56.297Z,5.01
2024-02-02T16:41:22.680Z,5.37
2024-02-02T16:43:49.056Z,5.30
2024-02-02T16:46:15.477Z,5.32
2024-02-02T16:48:42.086Z,5.59
2024-02-02T16:51:08.575Z,5.29
2024-02-02T16:53:35.016Z,4.81
2024-02-02T16:56:01.453Z,4.64
2024-02-02T16:58:27.840Z,4.49
2024-02-02T17:00:54.272Z,4.64
2024-02-02T17:03:20.756Z,4.30
2024-02-02T17:05:47.201Z,3.98
2024-02-02T17:08:13.582Z,4.15
2024-02-02T17:10:39.966Z,4.09
2024-02-02T17:13:06.347Z,4.27
2024-02-02T17:15:32.751Z,4.07
2024-02-02T17:17:59.163Z,4.32
2024-02-02T17:20:26.639Z,4.47
2024-02-02T17:22:53.046Z,4.86
2024-02-02T17:25:19.463Z,4.41
2024-02-02T17:27:45.895Z,5.01
2024-02-02T17:30:12.343Z,5.06
2024-02-02T17:32:39.616Z,4.93
2024-02-02T17:35:06.576Z,4.71
2024-02-02T17:37:32.981Z,4.68
2024-02-02T17:39:59.397Z,4.42
2024-02-02T17:42:25.803Z,4.30
2024-02-02T17:44:52.196Z,4.59
2024-02-02T17:47:18.586Z,4.60
2024-02-02T17:49:46.013Z,4.55
2024-02-02T17:52:15.813Z,4.68
2024-02-02T17:54:42.254Z,4.59
2024-02-02T17:57:08.656Z,4.61
2024-02-02T17:59:35.064Z,4.49
2024-02-02T18:02:01.430Z,4.49
2024-02-02T18:04:27.937Z,4.35
2024-02-02T18:06:54.395Z,4.37
2024-02-02T18:09:20.870Z,4.14
2024-02-02T18:11:47.290Z,4.24
2024-02-02T18:14:13.720Z,3.66
2024-02-02T18:16:40.112Z,3.63
2024-02-02T18:19:06.593Z,3.02
2024-02-02T18:21:33.107Z,2.68
2024-02-02T18:23:59.501Z,2.67
2024-02-02T18:26:25.880Z,2.75
2024-02-02T18:28:52.276Z,2.69
2024-02-02T18:31:18.666Z,2.36
2024-02-02T18:33:45.152Z,2.52
2024-02-02T18:36:11.627Z,2.60
2024-02-02T18:38:38.059Z,3.03
2024-02-02T18:41:04.442Z,4.21
2024-02-02T18:43:30.838Z,4.80
2024-02-02T18:45:57.204Z,4.08
2024-02-02T18:48:23.752Z,3.26
2024-02-02T18:50:50.287Z,3.21
2024-02-02T18:53:16.691Z,3.04
2024-02-02T18:55:43.059Z,2.96
2024-02-02T18:58:09.457Z,2.94
2024-02-02T19:00:36.044Z,3.04
2024-02-02T19:03:02.560Z,3.64
2024-02-02T19:05:29.009Z,6.51
2024-02-02T19:07:55.389Z,13.11
2024-02-02T19:10:21.773Z,6.82
2024-02-02T19:12:48.214Z,4.07
2024-02-02T19:15:14.659Z,4.12
2024-02-02T19:17:41.163Z,4.20
2024-02-02T19:20:07.678Z,4.88
2024-02-02T19:22:34.076Z,8.72
2024-02-02T19:25:00.523Z,10.16
2024-02-02T19:27:27.017Z,11.28
2024-02-02T19:29:53.472Z,10.93
2024-02-02T19:32:19.866Z,7.47
2024-02-02T19:34:46.313Z,4.07
2024-02-02T19:37:12.767Z,3.63
2024-02-02T19:39:39.214Z,3.36
2024-02-02T19:42:05.670Z,3.64
2024-02-02T19:44:32.079Z,4.72
2024-02-02T19:46:58.462Z,3.19
2024-02-02T19:49:25.004Z,3.50
2024-02-02T19:51:51.507Z,2.73
2024-02-02T19:54:17.908Z,2.08
2024-02-02T19:56:44.676Z,2.12
2024-02-02T19:59:11.070Z,2.47
2024-02-02T20:01:37.497Z,2.21
2024-02-02T20:04:04.080Z,2.23
2024-02-02T20:06:30.614Z,2.57
2024-02-02T20:08:57.143Z,2.63
2024-02-02T20:11:23.535Z,2.11
2024-02-02T20:13:50.128Z,1.76
2024-02-02T20:16:16.627Z,2.03
2024-02-02T20:18:43.136Z,2.38
2024-02-02T20:21:09.726Z,2.34
2024-02-02T20:23:36.124Z,2.02
2024-02-02T20:26:02.501Z,1.93
2024-02-02T20:28:28.903Z,1.99
2024-02-02T20:30:55.342Z,1.94
2024-02-02T20:33:21.909Z,1.69
2024-02-02T20:35:48.350Z,1.50
2024-02-02T20:38:14.743Z,1.34
2024-02-02T20:40:41.145Z,2.08
2024-02-02T20:43:07.670Z,3.12
2024-02-02T20:45:34.090Z,2.75
2024-02-02T20:48:00.590Z,2.37
2024-02-02T20:50:27.012Z,1.94
2024-02-02T20:52:53.406Z,1.86
2024-02-02T20:55:19.788Z,1.61
2024-02-02T20:57:46.253Z,1.76
2024-02-02T21:00:12.857Z,2.06
2024-02-02T21:02:39.281Z,2.26
2024-02-02T21:05:05.658Z,1.79
2024-02-02T21:07:32.146Z,1.48
2024-02-02T21:09:58.576Z,1.41
2024-02-02T21:12:25.005Z,1.73
2024-02-02T21:14:51.411Z,1.82
2024-02-02T21:17:17.769Z,1.68
2024-02-02T21:19:44.260Z,1.67
2024-02-02T21:22:10.706Z,1.78
2024-02-02T21:24:37.127Z,1.81
2024-02-02T21:27:03.607Z,1.78
2024-02-02T21:29:30.023Z,1.87
2024-02-02T21:31:56.427Z,1.89
2024-02-02T21:34:22.881Z,1.94
2024-02-02T21:36:49.338Z,2.05
2024-02-02T21:39:15.790Z,2.13
2024-02-02T21:41:42.179Z,2.23
2024-02-02T21:44:08.582Z,2.48
2024-02-02T21:46:34.966Z,2.25
2024-02-02T21:49:01.516Z,2.13
2024-02-02T21:51:28.016Z,2.27
2024-02-02T21:53:54.398Z,2.36
2024-02-02T21:56:20.778Z,2.51
2024-02-02T21:58:47.171Z,2.54
2024-02-02T22:01:13.625Z,2.76
2024-02-02T22:03:40.104Z,2.43
2024-02-02T22:06:06.601Z,3.39
2024-02-02T22:08:33.048Z,10.43
2024-02-02T22:10:59.420Z,5.33
2024-02-02T22:13:25.792Z,2.50
2024-02-02T22:15:52.214Z,2.17
2024-02-02T22:18:18.725Z,2.90
2024-02-02T22:20:45.152Z,2.40
2024-02-02T22:23:11.531Z,2.15
2024-02-02T22:25:37.904Z,1.95
2024-02-02T22:28:07.085Z,1.78
2024-02-02T22:30:33.692Z,1.65
2024-02-02T22:33:00.202Z,1.76
2024-02-02T22:35:26.675Z,1.92
2024-02-02T22:37:53.074Z,1.97
2024-02-02T22:40:19.460Z,2.07
2024-02-02T22:42:45.913Z,1.87
2024-02-02T22:45:12.381Z,1.87
2024-02-02T22:47:38.900Z,2.05
2024-02-02T22:50:05.952Z,2.03
2024-02-02T22:52:32.995Z,2.16
2024-02-02T22:54:59.386Z,2.34
2024-02-02T22:57:25.808Z,2.32
2024-02-02T22:59:59.364Z,2.22
2024-02-02T23:02:28.652Z,1.84
2024-02-02T23:04:55.051Z,2.06
2024-02-02T23:07:21.456Z,2.02
2024-02-02T23:09:47.916Z,2.07
2024-02-02T23:12:14.326Z,2.04
2024-02-02T23:14:40.749Z,1.91
2024-02-02T23:17:07.148Z,1.75
2024-02-02T23:19:35.291Z,1.81
2024-02-02T23:22:03.227Z,1.78
2024-02-02T23:24:29.664Z,1.61
2024-02-02T23:26:56.079Z,1.62
2024-02-02T23:29:22.480Z,1.84
2024-02-02T23:31:48.859Z,1.65
2024-02-02T23:34:15.349Z,1.87
2024-02-02T23:36:41.832Z,2.20
2024-02-02T23:39:08.287Z,2.10
2024-02-02T23:41:34.702Z,1.79
2024-02-02T23:44:01.102Z,1.72
2024-02-02T23:46:27.494Z,1.83
2024-02-02T23:48:53.969Z,2.86
2024-02-02T23:51:20.422Z,3.12
2024-02-02T23:53:46.805Z,3.31
2024-02-02T23:56:13.184Z,3.61
2024-02-02T23:58:39.575Z,3.86
